Time;durP1;ratioP1;P1;durP2;ratioP2;P2;SDS_P1;SDS_P2;PMS_P1;PMS_P2;Temp;Humidity;BMP_temperature;BMP_pressure;BME280_temperature;BME280_humidity;BME280_pressure;Samples;Min_cycle;Max_cycle;Signal;HPM_P1;HPM_P2
2022/10/28 00:01:34;;;;;;;15.10;10.77;;;19.30;91.50;;;19.32;56.76;99893.69;5035009;28;20044;-75
2022/10/28 00:04:01;;;;;;;16.95;10.32;;;19.20;91.50;;;19.30;56.98;99901.41;5012616;28;20789;-75
2022/10/28 00:06:34;;;;;;;14.15;9.93;;;19.30;91.50;;;19.36;57.21;99896.63;5030947;28;20052;-75
2022/10/28 00:09:00;;;;;;;15.15;10.15;;;19.30;91.60;;;19.36;57.12;99888.38;5027020;28;20041;-75
2022/10/28 00:11:32;;;;;;;11.77;8.85;;;19.30;91.60;;;19.32;57.25;99879.13;5045990;28;20102;-75
2022/10/28 00:14:01;;;;;;;12.82;9.82;;;19.30;91.60;;;19.33;56.74;99880.72;5046163;28;20112;-75
2022/10/28 00:16:30;;;;;;;15.20;10.88;;;19.30;91.50;;;19.32;56.68;99881.88;5027304;28;20049;-75
2022/10/28 00:18:58;;;;;;;15.32;10.13;;;19.20;91.50;;;19.31;56.90;99875.56;5041255;28;20042;-75
2022/10/28 00:21:26;;;;;;;14.13;10.13;;;19.20;91.40;;;19.28;56.99;99887.16;5048081;28;20055;-75
2022/10/28 00:23:53;;;;;;;14.07;9.73;;;19.20;91.50;;;19.29;57.18;99873.09;5049206;28;20041;-75
2022/10/28 00:26:22;;;;;;;16.88;10.82;;;19.20;91.60;;;19.31;57.27;99875.56;5053530;28;20129;-76
2022/10/28 00:28:57;;;;;;;12.82;10.13;;;19.20;91.60;;;19.28;57.18;99873.38;5037787;28;20047;-75
2022/10/28 00:31:25;;;;;;;18.73;10.77;;;19.20;91.50;;;19.26;57.01;99873.72;5046320;28;20036;-75
2022/10/28 00:33:51;;;;;;;15.02;9.90;;;19.20;91.50;;;19.25;57.09;99871.25;5048529;28;20620;-75
2022/10/28 00:36:28;;;;;;;14.35;10.00;;;19.20;91.50;;;19.27;56.88;99869.81;5046566;28;20041;-75
2022/10/28 00:38:55;;;;;;;15.20;10.32;;;19.20;91.50;;;19.30;56.84;99868.41;5049970;28;20042;-75
2022/10/28 00:41:26;;;;;;;16.83;10.77;;;19.20;91.50;;;19.28;56.84;99865.13;5051079;28;20057;-75
2022/10/28 00:43:57;;;;;;;16.70;10.43;;;19.20;91.60;;;19.28;57.16;99859.63;5050203;28;20119;-75
2022/10/28 00:46:41;;;;;;;15.27;10.20;;;19.20;91.60;;;19.28;56.81;99854.97;5006378;28;20048;-75
2022/10/28 00:49:20;;;;;;;15.55;10.95;;;19.20;91.40;;;19.27;56.80;99858.81;5035084;28;20052;-75
2022/10/28 00:51:47;;;;;;;17.83;12.20;;;19.20;91.50;;;19.22;56.76;99858.13;5064112;28;20044;-75
2022/10/28 00:54:13;;;;;;;14.63;10.25;;;19.20;91.40;;;19.24;56.88;99853.13;5033847;28;20089;-75
2022/10/28 00:56:43;;;;;;;14.57;10.40;;;19.20;91.60;;;19.27;57.25;99853.31;5067393;28;20052;-75
2022/10/28 00:59:28;;;;;;;13.13;10.63;;;19.20;91.60;;;19.25;57.15;99858.31;5035828;28;20052;-76
2022/10/28 01:01:53;;;;;;;14.65;10.90;;;19.20;91.60;;;19.24;56.69;99853.13;5048294;28;20036;-76
2022/10/28 01:04:20;;;;;;;14.30;10.57;;;19.20;91.40;;;19.23;56.74;99852.31;5019312;28;20035;-75
2022/10/28 01:06:46;;;;;;;14.50;10.43;;;19.10;91.40;;;19.20;56.80;99847.41;5035631;28;20523;-76
2022/10/28 01:09:12;;;;;;;13.13;9.65;;;19.20;91.40;;;19.22;57.16;99847.13;5012684;28;20449;-76
2022/10/28 01:12:14;;;;;;;15.35;10.60;;;19.20;91.50;;;19.24;57.19;99842.13;5061478;28;20041;-76
2022/10/28 01:14:53;;;;;;;15.52;10.68;;;19.10;91.60;;;19.23;57.28;99841.31;5050482;28;20182;-76
2022/10/28 01:17:52;;;;;;;16.33;9.82;;;19.20;91.60;;;19.20;56.90;99844.66;5064844;28;20488;-76
2022/10/28 01:20:55;;;;;;;15.57;11.40;;;19.20;91.50;;;19.21;57.02;99839.97;5062923;28;20049;-76
2022/10/28 01:24:03;;;;;;;14.82;10.65;;;19.20;91.50;;;19.20;56.68;99839.16;5064323;28;20040;-76
2022/10/28 01:26:58;;;;;;;17.38;11.95;;;19.20;91.40;;;19.24;57.14;99831.13;5053022;28;20055;-76
2022/10/28 01:30:12;;;;;;;15.23;9.98;;;19.10;91.50;;;19.19;57.34;99832.03;5043642;28;20069;-76
2022/10/28 01:32:50;;;;;;;16.38;10.73;;;19.10;91.60;;;19.15;57.29;99828.25;4998638;28;20047;-76
2022/10/28 01:35:24;;;;;;;14.95;11.05;;;19.10;91.50;;;19.15;57.00;99828.25;5011430;28;20045;-75
2022/10/28 01:38:08;;;;;;;15.15;11.70;;;19.10;91.50;;;19.15;56.80;99825.50;5040615;28;20037;-75
2022/10/28 01:40:50;;;;;;;16.30;11.23;;;19.10;91.50;;;19.17;56.98;99827.97;5065026;28;20037;-76
2022/10/28 01:43:29;;;;;;;16.00;11.27;;;19.10;91.50;;;19.21;56.97;99823.47;5051469;28;20464;-75
2022/10/28 01:46:06;;;;;;;16.85;11.45;;;19.10;91.60;;;19.19;57.20;99823.78;5035698;28;20098;-75
2022/10/28 01:48:39;;;;;;;13.57;10.40;;;19.10;91.60;;;19.14;57.23;99821.16;5065874;28;20178;-76
2022/10/28 01:51:22;;;;;;;15.48;11.82;;;19.10;91.60;;;19.16;56.85;99810.66;5050977;28;20644;-76
2022/10/28 01:53:50;;;;;;;14.40;10.20;;;19.10;91.50;;;19.15;56.77;99811.75;5035572;28;20148;-75
2022/10/28 01:56:18;;;;;;;16.80;10.10;;;19.10;91.40;;;19.14;56.94;99807.38;5019778;28;20047;-75
2022/10/28 01:58:44;;;;;;;18.85;11.57;;;19.00;91.40;;;19.14;57.04;99806.59;5020440;28;20042;-75
2022/10/28 02:01:10;;;;;;;17.58;11.05;;;19.10;91.60;;;19.19;57.02;99799.03;5034601;28;20032;-75
2022/10/28 02:03:36;;;;;;;15.90;10.88;;;19.10;91.60;;;19.20;56.98;99797.09;5050145;28;20045;-75
2022/10/28 02:06:05;;;;;;;16.25;10.57;;;19.10;91.60;;;19.15;56.58;99795.25;5047293;28;20709;-75
2022/10/28 02:09:04;;;;;;;16.73;11.20;;;19.10;91.40;;;19.14;56.84;99798.34;5031468;28;20116;-75
2022/10/28 02:12:24;;;;;;;13.48;9.88;;;19.10;91.40;;;19.14;56.68;99792.84;5052790;28;20041;-75
2022/10/28 02:15:18;;;;;;;13.98;10.65;;;19.00;91.40;;;19.13;56.95;99794.75;5008643;28;20892;-75
2022/10/28 02:18:12;;;;;;;15.00;10.50;;;19.10;91.60;;;19.17;56.87;99790.28;5054816;28;20115;-76
2022/10/28 02:21:07;;;;;;;12.85;10.68;;;19.10;91.60;;;19.13;56.79;99781.00;5067888;28;20130;-75
2022/10/28 02:23:45;;;;;;;14.90;10.95;;;19.10;91.50;;;19.14;56.81;99782.63;5067345;28;20121;-76
2022/10/28 02:26:21;;;;;;;14.93;11.00;;;19.10;91.40;;;19.14;56.66;99774.38;5040550;28;20476;-76
2022/10/28 02:29:12;;;;;;;16.30;11.73;;;19.10;91.40;;;19.16;56.28;99774.91;5039311;28;20476;-76
2022/10/28 02:32:02;;;;;;;14.27;10.23;;;19.00;91.30;;;19.13;56.88;99772.75;5044765;28;20115;-76
2022/10/28 02:34:32;;;;;;;13.80;10.02;;;19.10;91.50;;;19.14;57.06;99770.81;5055944;28;20037;-76
2022/10/28 02:37:00;;;;;;;16.25;10.20;;;19.10;91.50;;;19.14;57.03;99770.81;5036305;28;20064;-76
2022/10/28 02:39:35;;;;;;;13.48;10.50;;;19.10;91.40;;;19.13;56.62;99771.94;5036028;28;20761;-76
2022/10/28 02:42:15;;;;;;;13.52;10.45;;;19.00;91.30;;;19.14;56.45;99765.34;5051696;28;20037;-76
2022/10/28 02:44:51;;;;;;;17.27;10.88;;;19.10;91.30;;;19.07;56.64;99772.03;5011939;28;20036;-76
2022/10/28 02:47:21;;;;;;;15.38;11.80;;;19.00;91.40;;;19.09;56.90;99780.00;5055913;28;20399;-76
2022/10/28 02:49:52;;;;;;;14.23;10.10;;;19.00;91.50;;;19.12;56.97;99776.63;5035747;28;20029;-76
2022/10/28 02:52:19;;;;;;;14.40;9.98;;;19.00;91.50;;;19.06;57.16;99769.63;5041026;28;20036;-76
2022/10/28 02:54:50;;;;;;;14.13;10.13;;;19.00;91.50;;;19.07;56.98;99772.03;5040630;28;20475;-75
2022/10/28 02:57:19;;;;;;;12.30;9.30;;;19.00;91.40;;;19.08;56.79;99770.94;5054375;28;20044;-76
2022/10/28 03:00:18;;;;;;;13.02;9.95;;;19.00;91.40;;;19.08;56.52;99761.84;5039177;28;20076;-76
2022/10/28 03:02:44;;;;;;;14.88;9.63;;;19.00;91.30;;;19.08;56.94;99761.84;5039116;28;20128;-76
2022/10/28 03:05:10;;;;;;;13.50;10.20;;;19.00;91.50;;;19.07;56.81;99761.03;5037017;28;20448;-76
2022/10/28 03:07:37;;;;;;;16.38;11.10;;;19.00;91.50;;;19.04;57.38;99760.84;5037724;28;20082;-76
2022/10/28 03:10:03;;;;;;;13.82;10.25;;;19.00;91.60;;;19.05;57.01;99756.97;5033176;28;20039;-76
2022/10/28 03:12:29;;;;;;;14.98;10.05;;;19.00;91.40;;;19.08;56.57;99761.84;5047856;28;20090;-76
2022/10/28 03:14:55;;;;;;;13.10;10.90;;;19.00;91.40;;;19.06;56.79;99767.66;5032546;28;20036;-76
2022/10/28 03:17:22;;;;;;;14.13;9.95;;;19.00;91.40;;;19.07;56.74;99768.47;5043373;28;20036;-76
2022/10/28 03:19:47;;;;;;;13.43;9.55;;;18.90;91.40;;;19.04;56.96;99756.16;5050105;28;20036;-76
2022/10/28 03:22:14;;;;;;;15.00;10.50;;;19.00;91.50;;;19.05;57.22;99763.28;5040905;28;20062;-76
2022/10/28 03:24:39;;;;;;;12.43;9.10;;;19.00;91.60;;;19.07;56.80;99765.72;5053469;28;20044;-76
2022/10/28 03:27:06;;;;;;;10.50;9.23;;;19.00;91.50;;;19.05;56.78;99767.97;5049146;28;20484;-76
2022/10/28 03:29:31;;;;;;;13.63;10.02;;;19.00;91.40;;;19.06;56.66;99762.19;5065074;28;20066;-76
2022/10/28 03:31:58;;;;;;;11.70;9.73;;;19.00;91.30;;;19.02;56.77;99765.84;5038038;28;20037;-76
2022/10/28 03:34:24;;;;;;;15.60;10.75;;;19.00;91.40;;;19.04;56.72;99761.66;5066282;28;20134;-76
2022/10/28 03:36:50;;;;;;;11.48;9.63;;;18.90;91.40;;;19.03;57.23;99750.94;5065093;28;20040;-76
2022/10/28 03:39:16;;;;;;;15.35;10.10;;;19.00;91.60;;;19.04;57.07;99749.84;5036740;28;20154;-76
2022/10/28 03:41:42;;;;;;;14.57;9.60;;;19.00;91.50;;;19.00;56.91;99748.81;5038651;28;20040;-75
2022/10/28 03:44:08;;;;;;;23.35;11.25;;;19.00;91.40;;;19.03;56.89;99745.44;5066382;28;20454;-75
2022/10/28 03:46:35;;;;;;;14.68;10.32;;;18.90;91.30;;;19.03;56.70;99737.22;5036193;28;20040;-76
2022/10/28 03:49:01;;;;;;;13.18;10.90;;;19.00;91.40;;;19.03;56.59;99742.72;5051179;28;20405;-76
2022/10/28 03:51:27;;;;;;;11.27;9.63;;;18.90;91.30;;;19.01;56.83;99743.03;5063250;28;20048;-75
2022/10/28 03:53:53;;;;;;;12.68;10.48;;;18.90;91.50;;;19.04;56.40;99747.09;5023587;28;20716;-75
2022/10/28 03:56:19;;;;;;;14.70;10.43;;;18.90;91.30;;;19.03;55.93;99753.69;5067913;28;20052;-76
2022/10/28 03:58:48;;;;;;;10.88;9.23;;;18.90;91.10;;;19.03;55.84;99748.19;5034602;28;20044;-76
2022/10/28 04:01:14;;;;;;;12.30;10.38;;;18.90;91.00;;;19.04;55.33;99745.16;5031243;28;20037;-76
2022/10/28 04:03:40;;;;;;;15.32;10.63;;;19.00;91.00;;;18.99;56.16;99747.22;5023025;28;20067;-75
2022/10/28 04:06:08;;;;;;;11.55;9.00;;;18.90;91.10;;;19.01;56.41;99744.97;5038213;28;20050;-76
2022/10/28 04:08:35;;;;;;;15.85;10.27;;;18.90;91.20;;;18.96;56.51;99736.84;5036934;28;20512;-75
2022/10/28 04:11:02;;;;;;;14.63;10.18;;;18.90;91.20;;;18.99;55.74;99742.50;5021235;28;20437;-76
2022/10/28 04:13:28;;;;;;;13.13;9.93;;;19.00;91.00;;;19.00;55.42;99743.31;5018863;28;20041;-75
2022/10/28 04:15:55;;;;;;;19.58;12.07;;;19.00;90.80;;;19.00;55.46;99743.31;5049561;28;20120;-75
2022/10/28 04:18:21;;;;;;;15.98;10.27;;;19.00;90.80;;;18.98;55.40;99737.31;5065030;28;20554;-76
2022/10/28 04:20:47;;;;;;;13.50;9.88;;;19.00;90.80;;;18.97;56.10;99738.44;5036615;28;20048;-76
2022/10/28 04:23:19;;;;;;;15.60;10.80;;;19.00;91.20;;;18.97;55.98;99738.44;5052434;28;20710;-76
2022/10/28 04:25:45;;;;;;;15.23;10.65;;;18.90;91.10;;;18.98;55.49;99751.06;5039251;28;20040;-76
2022/10/28 04:28:11;;;;;;;14.35;10.73;;;19.00;90.90;;;18.98;55.33;99748.31;5037042;28;20494;-76
2022/10/28 04:30:37;;;;;;;15.82;11.82;;;19.00;90.80;;;18.97;55.05;99728.25;5048852;28;20114;-76
2022/10/28 04:33:03;;;;;;;11.32;9.50;;;19.00;90.70;;;18.95;55.06;99730.50;5050300;28;20430;-76
2022/10/28 04:35:29;;;;;;;11.43;10.18;;;18.90;90.60;;;18.98;55.39;99734.56;5022851;28;20044;-76
2022/10/28 04:37:56;;;;;;;16.38;9.23;;;18.90;90.90;;;18.92;55.75;99724.81;5052456;28;20456;-77
2022/10/28 04:40:22;;;;;;;14.50;9.60;;;18.90;91.00;;;18.94;55.99;99720.63;5035024;28;20530;-76
2022/10/28 04:42:48;;;;;;;10.13;9.02;;;18.90;91.10;;;18.96;55.27;99723.88;5044931;28;20037;-76
2022/10/28 04:45:14;;;;;;;12.70;10.00;;;18.90;90.80;;;18.92;55.11;99716.56;5053909;28;20049;-76
2022/10/28 04:47:41;;;;;;;13.43;10.27;;;18.90;90.60;;;18.93;54.73;99710.75;5043683;28;20495;-76
2022/10/28 04:50:07;;;;;;;13.93;10.80;;;18.90;90.60;;;18.91;54.90;99715.75;5056692;28;20044;-76
2022/10/28 04:52:33;;;;;;;13.93;10.88;;;18.90;90.60;;;18.90;55.67;99713.28;5040783;28;20119;-76
2022/10/28 04:54:59;;;;;;;14.93;10.70;;;18.90;90.90;;;18.96;55.50;99717.59;5017199;28;20041;-77
2022/10/28 04:57:25;;;;;;;13.10;10.50;;;18.90;90.90;;;18.95;55.57;99725.00;5049658;28;20064;-76
2022/10/28 04:59:52;;;;;;;14.35;10.43;;;18.90;90.90;;;18.96;54.97;99725.84;5042614;28;20033;-77
2022/10/28 05:02:17;;;;;;;13.35;10.18;;;18.90;90.70;;;18.87;55.23;99722.97;5062320;28;20529;-77
2022/10/28 05:04:44;;;;;;;12.52;9.73;;;18.90;90.60;;;18.85;55.07;99725.19;5014250;28;20502;-77
2022/10/28 05:07:09;;;;;;;14.02;10.93;;;18.90;90.60;;;18.85;55.15;99725.19;5017130;28;20053;-77
2022/10/28 05:09:36;;;;;;;10.90;9.23;;;18.90;90.60;;;18.90;55.29;99735.28;5022764;28;20032;-76
2022/10/28 05:12:03;;;;;;;17.88;10.18;;;18.80;90.80;;;18.90;55.62;99732.53;5054304;28;20075;-77
2022/10/28 05:14:29;;;;;;;12.30;9.65;;;18.90;90.90;;;18.86;55.37;99724.91;5039534;28;20033;-77
2022/10/28 05:16:55;;;;;;;15.43;11.10;;;18.90;90.80;;;18.87;54.68;99723.78;5020904;28;20044;-77
2022/10/28 05:19:21;;;;;;;13.55;10.38;;;18.80;90.60;;;18.91;54.54;99714.94;5069265;28;20047;-76
2022/10/28 05:21:47;;;;;;;14.73;10.05;;;18.90;90.60;;;18.84;54.55;99713.41;5053457;28;20040;-76
2022/10/28 05:24:13;;;;;;;11.35;9.25;;;18.90;90.40;;;18.88;55.07;99716.38;5067326;28;20490;-76
2022/10/28 05:26:39;;;;;;;12.23;8.95;;;18.90;90.60;;;18.89;55.14;99708.94;5059698;28;20056;-76
2022/10/28 05:29:07;;;;;;;12.23;9.73;;;18.80;90.70;;;18.89;55.14;99700.69;5048296;28;20040;-75
2022/10/28 05:31:33;;;;;;;14.63;9.73;;;18.80;90.80;;;18.86;55.01;99704.84;5031000;28;20043;-75
2022/10/28 05:33:59;;;;;;;13.48;9.68;;;18.80;90.60;;;18.87;54.67;99715.53;5051447;28;20093;-75
2022/10/28 05:36:25;;;;;;;12.55;10.82;;;18.80;90.60;;;18.85;54.30;99712.31;5042719;28;20044;-75
2022/10/28 05:38:51;;;;;;;13.93;10.23;;;18.80;90.50;;;18.86;54.30;99718.59;5031738;28;20048;-75
2022/10/28 05:41:18;;;;;;;13.45;10.20;;;18.80;90.50;;;18.83;55.04;99717.28;5001957;28;20044;-75
2022/10/28 05:43:44;;;;;;;15.93;9.95;;;18.80;90.70;;;18.90;54.96;99721.53;5062712;28;20028;-76
2022/10/28 05:46:10;;;;;;;12.02;8.98;;;18.70;90.80;;;18.84;55.08;99712.59;5052870;28;20102;-75
2022/10/28 05:48:37;;;;;;;11.77;9.45;;;18.80;90.80;;;18.87;54.52;99711.97;5043680;28;20052;-77
2022/10/28 05:51:03;;;;;;;13.88;9.07;;;18.80;90.50;;;18.86;54.60;99715.84;5012060;28;20071;-76
2022/10/28 05:53:29;;;;;;;14.98;9.82;;;18.80;90.50;;;18.87;54.57;99710.03;5041025;28;20041;-76
2022/10/28 05:55:55;;;;;;;11.70;9.50;;;18.80;90.50;;;18.86;54.51;99705.66;5036967;28;20063;-75
2022/10/28 05:58:21;;;;;;;12.35;10.27;;;18.70;90.50;;;18.83;54.53;99705.47;5024980;28;20041;-78
2022/10/28 06:00:47;;;;;;;12.07;10.25;;;18.80;90.60;;;18.87;54.73;99710.03;5053195;28;20056;-79
2022/10/28 06:03:13;;;;;;;13.43;8.18;;;18.70;90.60;;;18.89;54.90;99704.25;5060292;28;20119;-78
2022/10/28 06:05:42;;;;;;;13.32;9.30;;;18.70;90.80;;;18.89;55.08;99709.75;5043608;28;20079;-75
2022/10/28 06:08:10;;;;;;;11.32;8.93;;;18.80;90.90;;;18.91;54.93;99707.50;5029139;28;20572;-76
2022/10/28 06:10:36;;;;;;;13.65;8.55;;;18.80;90.90;;;18.91;54.83;99706.69;5042409;28;20049;-76
2022/10/28 06:13:03;;;;;;;11.93;10.00;;;18.80;90.70;;;18.87;54.68;99696.28;5050015;28;20045;-76
2022/10/28 06:15:28;;;;;;;14.80;10.02;;;18.80;90.70;;;18.90;54.73;99699.56;5029280;28;20045;-76
2022/10/28 06:17:55;;;;;;;12.70;9.40;;;18.80;90.60;;;18.90;54.68;99694.84;5029330;28;20501;-75
2022/10/28 06:20:21;;;;;;;12.30;9.43;;;18.80;90.70;;;18.91;55.03;99706.69;5053596;28;20068;-75
2022/10/28 06:22:51;;;;;;;11.68;9.50;;;18.80;90.80;;;18.92;55.08;99708.31;5027360;28;20063;-75
2022/10/28 06:25:18;;;;;;;11.57;9.38;;;18.80;90.80;;;18.91;54.93;99715.75;5029400;28;20060;-75
2022/10/28 06:27:45;;;;;;;11.40;8.75;;;18.80;90.80;;;18.97;54.60;99719.19;5049604;28;20497;-75
2022/10/28 06:30:12;;;;;;;16.15;9.55;;;18.80;90.70;;;18.93;54.79;99718.16;5009923;28;20080;-76
2022/10/28 06:32:38;;;;;;;13.57;9.35;;;18.80;90.70;;;18.94;54.76;99720.63;5044173;28;20060;-75
2022/10/28 06:35:05;;;;;;;14.50;9.32;;;18.80;90.60;;;18.97;54.74;99716.44;5052730;28;20097;-76
2022/10/28 06:37:31;;;;;;;13.80;10.32;;;18.80;90.70;;;18.94;54.88;99715.13;5035769;28;20041;-75
2022/10/28 06:39:59;;;;;;;12.20;8.23;;;18.80;90.80;;;18.99;54.98;99716.97;5044716;28;20044;-76
2022/10/28 06:42:25;;;;;;;13.57;9.00;;;18.80;90.80;;;18.97;54.70;99719.19;5026983;28;20044;-75
2022/10/28 06:44:53;;;;;;;10.80;8.52;;;18.80;90.80;;;18.99;54.58;99723.28;5055877;28;20091;-76
2022/10/28 06:47:20;;;;;;;9.57;8.65;;;18.80;90.70;;;18.99;54.52;99725.22;5015662;28;20143;-76
2022/10/28 06:49:46;;;;;;;12.63;9.38;;;18.80;90.60;;;18.98;54.47;99729.06;5058221;28;20044;-76
2022/10/28 06:52:12;;;;;;;14.80;9.45;;;18.80;90.60;;;18.99;54.79;99719.72;5045137;28;20819;-76
2022/10/28 06:54:38;;;;;;;10.85;7.97;;;18.80;90.80;;;19.01;55.06;99722.97;5044498;28;20044;-76
2022/10/28 06:57:05;;;;;;;11.63;8.82;;;18.90;90.80;;;19.04;54.71;99727.84;5045106;28;20140;-76
2022/10/28 06:59:31;;;;;;;10.75;8.73;;;18.90;90.80;;;19.01;54.71;99723.78;5037836;28;20131;-76
2022/10/28 07:01:57;;;;;;;12.05;8.50;;;18.90;90.70;;;18.99;54.93;99730.72;5027795;28;20119;-76
2022/10/28 07:04:23;;;;;;;12.98;9.10;;;18.90;90.70;;;19.00;54.51;99718.59;5032209;28;20045;-76
2022/10/28 07:06:54;;;;;;;13.68;8.98;;;18.80;90.60;;;19.00;54.54;99711.13;5061866;28;20063;-76
2022/10/28 07:09:23;;;;;;;9.45;8.25;;;18.90;90.60;;;19.06;54.72;99717.38;5018880;28;20620;-75
2022/10/28 07:11:49;;;;;;;12.82;9.38;;;18.90;90.80;;;19.04;54.80;99728.66;5065081;28;20047;-76
2022/10/28 07:14:15;;;;;;;13.57;8.10;;;18.90;90.80;;;19.02;54.49;99730.91;5031247;28;20040;-75
2022/10/28 07:16:41;;;;;;;13.00;8.82;;;18.90;90.70;;;19.00;54.64;99726.81;5012041;28;20044;-76
2022/10/28 07:19:08;;;;;;;17.15;10.13;;;18.90;90.60;;;18.99;54.62;99726.03;5026767;28;20041;-76
2022/10/28 07:21:34;;;;;;;13.85;9.45;;;18.90;90.60;;;19.00;54.58;99716.63;5028947;28;20044;-76
2022/10/28 07:24:02;;;;;;;14.88;10.95;;;18.90;90.60;;;19.02;54.57;99724.59;5040133;28;20045;-76
2022/10/28 07:26:28;;;;;;;13.93;8.90;;;18.90;90.70;;;19.04;54.62;99733.34;5046374;28;20044;-76
2022/10/28 07:28:54;;;;;;;16.17;10.13;;;19.00;90.80;;;19.06;54.57;99729.19;5041681;28;20041;-76
2022/10/28 07:31:20;;;;;;;16.85;10.68;;;19.00;90.70;;;19.05;54.64;99732.22;5032452;28;20544;-75
2022/10/28 07:33:53;;;;;;;16.02;9.77;;;19.00;90.60;;;19.04;54.44;99723.16;5032912;28;20040;-75
2022/10/28 07:36:19;;;;;;;15.77;9.85;;;19.00;90.60;;;19.05;54.42;99734.97;5031981;28;20124;-75
2022/10/28 07:38:50;;;;;;;14.10;9.30;;;18.90;90.60;;;19.02;54.48;99730.91;5056836;28;20036;-75
2022/10/28 07:41:16;;;;;;;24.35;12.43;;;19.00;90.60;;;19.10;54.49;99732.13;5042220;28;20044;-76
2022/10/28 07:43:42;;;;;;;29.15;14.05;;;19.00;90.70;;;19.12;54.54;99729.06;5040380;28;20507;-76
2022/10/28 07:46:08;;;;;;;25.10;11.65;;;19.00;90.70;;;19.09;54.63;99730.50;5049064;28;20101;-76
2022/10/28 07:48:35;;;;;;;19.08;11.57;;;19.00;90.60;;;19.08;54.45;99737.09;5039182;28;20060;-76
2022/10/28 07:51:03;;;;;;;20.23;10.88;;;19.00;90.50;;;19.08;54.23;99734.34;5033291;28;20064;-76
2022/10/28 07:53:30;;;;;;;20.65;11.15;;;19.00;90.50;;;19.09;54.30;99739.56;5031373;28;20045;-76
2022/10/28 07:56:01;;;;;;;21.35;11.60;;;19.00;90.50;;;19.09;54.34;99747.00;5043433;28;20091;-76
2022/10/28 07:58:28;;;;;;;;;;;19.00;90.60;;;19.12;54.42;99740.06;5046088;28;20557;-76
2022/10/28 08:00:53;;;;;;;27.92;13.05;;;19.10;90.70;;;19.14;54.62;99735.09;5034246;28;20293;-76
2022/10/28 08:03:23;;;;;;;21.30;12.60;;;19.10;90.70;;;19.09;54.44;99734.06;5015289;28;20064;-76
2022/10/28 08:05:49;;;;;;;25.88;11.98;;;19.10;90.60;;;19.10;54.35;99740.38;5058769;28;20051;-76
2022/10/28 08:08:16;;;;;;;25.00;11.57;;;19.10;90.50;;;19.09;54.25;99733.25;5046892;28;20095;-76
2022/10/28 08:10:42;;;;;;;25.52;12.95;;;19.00;90.50;;;19.12;54.19;99724.38;5020236;28;20040;-76
2022/10/28 08:13:09;;;;;;;37.95;15.52;;;19.10;90.50;;;19.14;54.40;99722.13;5045229;28;20415;-76
2022/10/28 08:15:35;;;;;;;29.80;13.00;;;19.10;90.60;;;19.16;54.54;99717.16;5060152;28;20041;-76
2022/10/28 08:18:01;;;;;;;22.50;13.48;;;19.10;90.60;;;19.19;54.44;99721.22;5047971;28;20041;-76
2022/10/28 08:20:28;;;;;;;25.17;11.90;;;19.10;90.60;;;19.16;54.22;99719.06;5039252;28;20504;-76
2022/10/28 08:22:54;;;;;;;18.67;11.60;;;19.10;90.50;;;19.14;54.47;99716.63;5029741;28;20516;-76
2022/10/28 08:25:22;;;;;;;23.10;12.30;;;19.10;90.50;;;19.15;54.33;99718.25;5043353;28;20089;-76
2022/10/28 08:27:48;;;;;;;23.52;12.05;;;19.10;90.50;;;19.17;54.47;99712.47;5044141;28;20151;-76
2022/10/28 08:30:14;;;;;;;29.73;14.27;;;19.10;90.50;;;19.18;54.55;99720.38;5031448;28;20044;-76
2022/10/28 08:32:41;;;;;;;32.03;14.43;;;19.20;90.60;;;19.21;54.42;99707.94;5033050;28;20043;-76
2022/10/28 08:35:07;;;;;;;25.17;11.90;;;19.20;90.60;;;19.21;54.44;99710.69;5016400;28;20082;-76
2022/10/28 08:37:34;;;;;;;23.85;13.00;;;19.20;90.50;;;19.24;54.07;99708.16;5058272;28;20102;-76
2022/10/28 08:40:01;;;;;;;30.13;12.20;;;19.20;90.50;;;19.22;54.07;99704.91;5047841;28;20458;-76
2022/10/28 08:42:45;;;;;;;17.42;10.93;;;19.20;90.40;;;19.23;53.98;99711.22;5033783;28;20036;-76
2022/10/28 08:46:02;;;;;;;26.40;12.32;;;19.10;90.40;;;19.26;54.16;99708.66;5045397;28;20405;-76
2022/10/28 08:48:35;;;;;;;26.52;11.63;;;19.20;90.50;;;19.27;54.28;99704.78;5015060;28;20080;-76
2022/10/28 08:51:15;;;;;;;31.85;13.55;;;19.20;90.50;;;19.24;54.32;99699.91;5024978;28;20520;-76
2022/10/28 08:53:54;;;;;;;20.70;11.70;;;19.20;90.50;;;19.27;54.31;99695.72;4997413;28;20039;-76
2022/10/28 08:56:56;;;;;;;23.48;11.98;;;19.30;90.40;;;19.28;54.26;99700.09;5008665;28;20045;-76
2022/10/28 08:59:26;;;;;;;;;;;19.20;90.40;;;19.27;54.04;99693.78;5008568;28;20060;-76
2022/10/28 09:02:23;;;;;;;31.08;12.52;;;19.30;90.40;;;19.28;54.32;99689.94;5020809;28;19929;-76
2022/10/28 09:05:27;;;;;;;19.33;10.48;;;19.30;90.50;;;19.34;54.14;99690.63;5004395;28;20571;-76
2022/10/28 09:07:53;;;;;;;21.15;11.13;;;19.30;90.50;;;19.34;54.06;99692.56;5009974;28;20061;-76
2022/10/28 09:10:53;;;;;;;20.27;11.68;;;19.30;90.40;;;19.34;54.05;99704.38;5001206;28;20188;-76
2022/10/28 09:13:34;;;;;;;21.50;11.90;;;19.40;90.40;;;19.36;53.84;99691.13;5039625;28;20503;-76
2022/10/28 09:16:41;;;;;;;25.03;12.17;;;19.40;90.40;;;19.37;54.02;99692.75;5040914;28;20045;-76
2022/10/28 09:19:31;;;;;;;19.10;10.82;;;19.40;90.40;;;19.39;54.03;99692.44;4995283;28;20068;-76
2022/10/28 09:22:19;;;;;;;23.80;12.45;;;19.40;90.50;;;19.43;53.93;99685.19;5041189;28;20099;-76
2022/10/28 09:24:52;;;;;;;26.00;10.93;;;19.40;90.40;;;19.39;53.85;99690.50;5038368;28;20044;-77
2022/10/28 09:27:45;;;;;;;19.83;11.43;;;19.40;90.30;;;19.41;53.73;99684.66;5019126;28;20490;-76
2022/10/28 09:30:38;;;;;;;24.90;11.95;;;19.40;90.30;;;19.46;53.53;99684.56;5021588;28;20048;-76
2022/10/28 09:33:33;;;;;;;21.65;10.52;;;19.40;90.20;;;19.43;53.50;99680.47;5019827;28;20045;-76
2022/10/28 09:35:59;;;;;;;20.55;9.90;;;19.50;90.70;;;19.46;53.97;99685.38;5023337;28;20413;-76
2022/10/28 09:38:36;;;;;;;21.33;10.68;;;19.50;90.30;;;19.47;54.04;99686.19;5019919;28;20038;-76
2022/10/28 09:41:23;;;;;;;22.08;11.18;;;19.50;90.30;;;19.49;53.60;99686.69;4992416;28;20033;-77
2022/10/28 09:43:58;;;;;;;22.00;11.30;;;19.50;90.20;;;19.47;53.60;99687.00;5023140;28;20046;-77
2022/10/28 09:46:26;;;;;;;17.23;9.25;;;19.50;90.20;;;19.48;53.25;99685.06;4989657;28;20069;-76
2022/10/28 09:48:55;;;;;;;18.00;10.98;;;19.60;90.00;;;19.50;53.34;99677.31;5024928;28;20126;-76
2022/10/28 09:51:42;;;;;;;18.33;8.93;;;19.50;90.10;;;19.51;53.26;99670.66;5039963;28;20523;-75
2022/10/28 09:54:09;;;;;;;16.80;9.70;;;19.60;90.10;;;19.49;53.69;99672.94;5042699;28;20041;-76
2022/10/28 09:56:35;;;;;;;19.58;10.07;;;19.60;90.10;;;19.51;53.27;99665.16;5021841;28;20119;-77
2022/10/28 09:59:01;;;;;;;18.83;10.77;;;19.60;90.00;;;19.52;53.30;99681.38;5029184;28;20065;-77
2022/10/28 10:01:32;;;;;;;18.23;8.15;;;19.60;90.00;;;19.49;53.12;99678.44;5030120;28;20046;-76
2022/10/28 10:03:58;;;;;;;15.60;9.32;;;19.60;89.70;;;19.56;52.76;99676.06;5038691;28;20041;-78
2022/10/28 10:06:37;;;;;;;14.82;9.20;;;19.60;89.70;;;19.56;52.69;99669.75;5019570;28;20045;-77
2022/10/28 10:09:04;;;;;;;17.08;9.00;;;19.60;89.70;;;19.57;52.59;99669.44;5045178;28;20120;-77
2022/10/28 10:11:46;;;;;;;11.85;7.93;;;19.60;89.70;;;19.59;52.56;99677.38;5025981;28;20044;-77
2022/10/28 10:14:21;;;;;;;15.48;8.70;;;19.60;89.70;;;19.65;52.83;99678.88;5037222;28;20049;-77
2022/10/28 10:16:59;;;;;;;13.40;8.02;;;19.60;89.70;;;19.62;52.70;99683.06;5008874;28;20386;-75
2022/10/28 10:19:25;;;;;;;13.82;7.65;;;19.70;89.80;;;19.63;52.50;99678.38;5014288;28;20068;-77
2022/10/28 10:21:53;;;;;;;15.10;8.50;;;19.70;89.70;;;19.64;52.60;99674.50;5016879;28;20091;-77
2022/10/28 10:24:34;;;;;;;12.90;8.27;;;19.70;89.80;;;19.67;52.86;99668.41;5030331;28;20040;-76
2022/10/28 10:27:11;;;;;;;15.05;7.88;;;19.80;90.00;;;19.66;52.85;99664.78;5029521;28;20125;-79
2022/10/28 10:29:43;;;;;;;17.70;7.47;;;19.80;90.00;;;19.66;52.65;99662.03;5014831;28;20128;-80